Time;durP1;ratioP1;P1;durP2;ratioP2;P2;SDS_P1;SDS_P2;PMS_P1;PMS_P2;Temp;Humidity;BMP_temperature;BMP_pressure;BME280_temperature;BME280_humidity;BME280_pressure;Samples;Min_cycle;Max_cycle;Signal;HPM_P1;HPM_P2
2021/08/07 00:02:07;;;;;;;6.63;2.08;;;;;;;18.00;88.17;98463.53;5034278;28;20689;-75
2021/08/07 00:04:34;;;;;;;3.33;2.30;;;;;;;18.09;87.08;98459.81;5033777;28;20181;-74
2021/08/07 00:07:00;;;;;;;2.67;2.20;;;;;;;18.11;86.27;98455.06;5024220;28;20288;-75
2021/08/07 00:09:27;;;;;;;3.30;2.10;;;;;;;18.19;82.51;98450.66;5014740;28;20521;-75
2021/08/07 00:11:54;;;;;;;1.80;1.70;;;;;;;18.18;81.10;98446.22;5014714;28;20186;-75
2021/08/07 00:14:22;;;;;;;2.63;2.42;;;;;;;18.16;81.67;98438.22;5014670;28;20224;-75
2021/08/07 00:16:48;;;;;;;4.00;1.50;;;;;;;18.19;81.40;98437.03;5014369;28;20620;-75
2021/08/07 00:19:15;;;;;;;5.10;1.90;;;;;;;18.17;81.68;98444.50;5027750;28;20561;-74
2021/08/07 00:21:41;;;;;;;4.43;2.35;;;;;;;18.13;81.73;98457.59;5034015;28;20315;-75
2021/08/07 00:24:08;;;;;;;3.60;1.75;;;;;;;18.00;82.65;98436.31;5034328;28;20194;-74
2021/08/07 00:26:34;;;;;;;2.92;1.60;;;;;;;18.13;81.55;98439.41;5033880;28;20295;-74
2021/08/07 00:29:01;;;;;;;3.50;1.67;;;;;;;18.08;82.10;98439.03;5032177;28;20616;-75
2021/08/07 00:31:29;;;;;;;2.33;2.13;;;;;;;18.25;81.16;98436.38;5033742;28;20276;-75
2021/08/07 00:33:56;;;;;;;3.65;1.92;;;;;;;18.24;81.17;98434.66;5034086;28;20239;-75
2021/08/07 00:36:22;;;;;;;2.15;1.60;;;;;;;18.15;80.95;98439.22;5034146;28;20188;-74
2021/08/07 00:38:49;;;;;;;2.35;1.90;;;;;;;17.95;82.05;98446.81;5033910;28;20623;-75
2021/08/07 00:41:15;;;;;;;4.40;1.80;;;;;;;18.07;81.97;98448.22;5021917;28;20555;-75
2021/08/07 00:43:42;;;;;;;1.80;1.35;;;;;;;17.99;82.10;98439.19;5014155;28;20194;-75
2021/08/07 00:46:09;;;;;;;3.03;1.30;;;;;;;18.21;80.44;98421.38;5014262;28;20307;-75
2021/08/07 00:48:37;;;;;;;4.90;2.30;;;;;;;17.95;82.15;98425.03;5014134;28;20208;-75
2021/08/07 00:51:04;;;;;;;2.63;1.88;;;;;;;17.98;82.08;98422.00;5032011;28;20196;-75
2021/08/07 00:53:31;;;;;;;2.05;1.52;;;;;;;18.02;81.56;98425.22;5033764;28;20211;-75
2021/08/07 00:55:58;;;;;;;3.22;1.70;;;;;;;17.95;81.75;98416.84;5033459;28;20239;-75
2021/08/07 00:58:24;;;;;;;2.50;1.40;;;;;;;18.06;81.41;98416.56;5023221;28;20722;-75
2021/08/07 01:00:51;;;;;;;3.03;1.60;;;;;;;18.12;81.43;98418.63;5013318;28;20212;-74
2021/08/07 01:03:33;;;;;;;2.65;1.83;;;;;;;18.08;81.43;98417.25;5013196;28;20332;-74
2021/08/07 01:06:12;;;;;;;5.40;1.70;;;;;;;18.16;81.38;98421.88;5013729;28;20616;-75
2021/08/07 01:08:43;;;;;;;3.03;2.58;;;;;;;18.28;80.61;98420.53;5013808;28;20195;-74
2021/08/07 01:11:16;;;;;;;2.10;1.40;;;;;;;18.35;80.21;98426.16;5013305;28;20196;-75
2021/08/07 01:13:47;;;;;;;2.58;1.90;;;;;;;18.21;80.72;98414.06;5013330;28;20190;-75
2021/08/07 01:16:21;;;;;;;2.38;1.77;;;;;;;18.11;81.84;98416.94;5013094;28;20192;-75
2021/08/07 01:18:49;;;;;;;2.55;1.90;;;;;;;18.26;81.06;98416.28;5013624;28;20189;-75
2021/08/07 01:21:21;;;;;;;3.05;1.83;;;;;;;18.22;81.34;98415.75;5013397;28;20736;-75
2021/08/07 01:23:51;;;;;;;3.80;2.60;;;;;;;18.32;80.85;98413.72;5013386;28;20691;-75
2021/08/07 01:26:27;;;;;;;2.60;1.73;;;;;;;18.20;81.56;98415.06;5015865;28;20200;-76
2021/08/07 01:28:57;;;;;;;3.17;1.63;;;;;;;18.20;81.39;98395.97;5033042;28;20678;-74
2021/08/07 01:31:25;;;;;;;4.07;1.73;;;;;;;18.08;82.10;98403.63;5032526;28;20240;-75
2021/08/07 01:33:53;;;;;;;1.98;1.50;;;;;;;18.07;82.20;98410.09;5032555;28;20273;-75
2021/08/07 01:36:20;;;;;;;1.63;1.40;;;;;;;18.11;82.13;98418.78;5032761;28;20696;-75
2021/08/07 01:38:47;;;;;;;4.38;2.13;;;;;;;18.03;82.36;98416.91;5032890;28;20204;-75
2021/08/07 01:41:15;;;;;;;3.05;1.42;;;;;;;18.02;82.67;98415.19;5032800;28;20191;-75
2021/08/07 01:43:42;;;;;;;4.32;1.70;;;;;;;18.16;82.38;98415.56;5032253;28;20234;-75
2021/08/07 01:46:11;;;;;;;3.17;1.95;;;;;;;18.13;82.21;98411.28;5032742;28;20283;-74
2021/08/07 01:48:45;;;;;;;2.88;1.65;;;;;;;18.15;82.26;98419.31;5030613;28;20225;-74
2021/08/07 01:51:14;;;;;;;5.60;1.65;;;;;;;18.29;81.37;98411.34;5032494;28;20295;-75
2021/08/07 01:53:44;;;;;;;5.38;2.30;;;;;;;18.28;81.24;98415.09;5033161;28;20184;-75
2021/08/07 01:56:15;;;;;;;2.85;1.80;;;;;;;18.30;81.30;98412.19;5033104;28;20211;-75
2021/08/07 01:58:45;;;;;;;3.92;2.13;;;;;;;18.30;80.97;98410.31;5032712;28;20204;-75
2021/08/07 02:01:15;;;;;;;2.92;1.90;;;;;;;18.36;80.97;98407.94;5032779;28;20540;-74
2021/08/07 02:03:42;;;;;;;2.40;1.58;;;;;;;18.29;81.42;98407.75;5032607;28;20301;-74
2021/08/07 02:06:10;;;;;;;2.97;1.98;;;;;;;18.37;80.89;98413.22;5032437;28;20204;-75
2021/08/07 02:08:39;;;;;;;2.83;1.98;;;;;;;18.26;81.40;98400.78;5032968;28;20276;-75
2021/08/07 02:11:06;;;;;;;1.80;1.48;;;;;;;18.27;81.94;98407.06;5033050;28;20210;-75
2021/08/07 02:13:34;;;;;;;6.63;2.20;;;;;;;18.17;82.00;98406.38;5032488;28;20275;-75
2021/08/07 02:16:02;;;;;;;3.95;1.85;;;;;;;18.29;81.58;98394.13;5024914;28;20202;-75
2021/08/07 02:18:32;;;;;;;1.90;1.80;;;;;;;18.28;81.69;98389.72;5013160;28;20546;-74
2021/08/07 02:20:59;;;;;;;4.30;1.77;;;;;;;18.40;81.47;98387.50;5012278;28;20241;-74
2021/08/07 02:23:26;;;;;;;2.80;1.95;;;;;;;18.31;81.70;98398.38;5012496;28;20686;-74
2021/08/07 02:25:56;;;;;;;4.38;2.67;;;;;;;18.33;81.63;98401.81;5012957;28;20294;-74
2021/08/07 02:28:23;;;;;;;3.60;1.90;;;;;;;18.08;84.72;98392.72;5012280;28;20193;-74
2021/08/07 02:30:51;;;;;;;3.20;2.28;;;;;;;17.64;88.20;98395.63;5012860;28;20590;-75
2021/08/07 02:33:21;;;;;;;5.38;2.70;;;;;;;17.50;90.62;98391.66;5012562;28;20204;-75
2021/08/07 02:35:50;;;;;;;4.88;2.17;;;;;;;17.53;90.48;98395.06;5012249;28;20199;-74
2021/08/07 02:38:18;;;;;;;4.82;2.28;;;;;;;17.34;91.91;98398.84;5012727;28;20214;-75
2021/08/07 02:40:45;;;;;;;4.78;2.40;;;;;;;17.26;93.23;98394.25;5012302;28;20193;-75
2021/08/07 02:43:13;;;;;;;2.03;1.83;;;;;;;17.51;91.61;98389.78;5012467;28;20290;-76
2021/08/07 02:45:40;;;;;;;3.80;2.40;;;;;;;17.34;92.43;98396.13;5012648;28;20668;-74
2021/08/07 02:48:07;;;;;;;3.47;3.17;;;;;;;17.38;92.08;98394.81;5012859;28;20192;-75
2021/08/07 02:50:35;;;;;;;5.22;2.60;;;;;;;17.50;91.16;98388.06;5012304;28;20283;-75
2021/08/07 02:53:03;;;;;;;2.35;1.88;;;;;;;17.66;89.26;98379.09;5012060;28;20239;-75
2021/08/07 02:55:30;;;;;;;2.83;2.22;;;;;;;17.53;89.43;98376.88;5012146;28;20224;-75
2021/08/07 02:57:57;;;;;;;3.80;1.88;;;;;;;17.48;89.90;98379.22;5012484;28;20638;-75
2021/08/07 03:00:24;;;;;;;2.95;1.90;;;;;;;17.68;88.99;98379.78;5012374;28;20189;-74
2021/08/07 03:02:50;;;;;;;3.40;2.20;;;;;;;17.78;87.80;98363.34;5011614;28;20252;-75
2021/08/07 03:05:20;;;;;;;4.10;2.22;;;;;;;17.91;86.96;98370.06;5012451;28;20212;-75
2021/08/07 03:07:46;;;;;;;5.80;1.80;;;;;;;17.95;86.57;98370.56;5012336;28;20195;-75
2021/08/07 03:10:15;;;;;;;6.45;3.28;;;;;;;18.01;86.08;98364.47;5012332;28;20199;-75
2021/08/07 03:12:43;;;;;;;2.97;1.90;;;;;;;18.10;85.49;98362.59;5012368;28;20202;-74
2021/08/07 03:15:14;;;;;;;4.82;1.90;;;;;;;18.15;84.59;98365.69;5012926;28;20980;-75
2021/08/07 03:17:41;;;;;;;2.17;1.95;;;;;;;18.26;83.77;98372.69;5012120;28;20198;-75
2021/08/07 03:20:09;;;;;;;7.60;2.33;;;;;;;18.42;82.25;98378.16;5012434;28;20603;-75
2021/08/07 03:22:36;;;;;;;2.88;2.10;;;;;;;18.35;82.75;98366.22;5011944;28;20209;-75
2021/08/07 03:25:03;;;;;;;2.78;1.60;;;;;;;18.27;83.38;98347.13;5012344;28;20224;-75
2021/08/07 03:27:31;;;;;;;2.75;1.88;;;;;;;18.25;83.20;98341.88;5012126;28;20200;-75
2021/08/07 03:29:58;;;;;;;2.20;1.50;;;;;;;18.31;83.23;98364.84;5012562;28;20276;-75
2021/08/07 03:32:24;;;;;;;2.47;1.65;;;;;;;18.39;82.97;98366.75;5012243;28;20554;-75
2021/08/07 03:34:51;;;;;;;2.65;2.30;;;;;;;18.38;82.79;98368.59;5012388;28;20542;-75
2021/08/07 03:37:17;;;;;;;2.72;1.80;;;;;;;18.44;82.23;98365.22;5015789;28;20186;-75
2021/08/07 03:39:44;;;;;;;5.32;2.20;;;;;;;18.39;82.69;98359.41;5013207;28;20291;-75
2021/08/07 03:42:11;;;;;;;3.20;1.80;;;;;;;18.54;81.85;98363.19;5015459;28;20200;-76
2021/08/07 03:44:39;;;;;;;3.97;1.90;;;;;;;18.48;82.08;98365.72;5015173;28;20202;-74
2021/08/07 03:47:05;;;;;;;5.45;2.28;;;;;;;18.44;82.29;98359.75;5015639;28;20276;-75
2021/08/07 03:49:32;;;;;;;4.93;1.92;;;;;;;18.48;82.32;98350.22;5015596;28;20219;-76
2021/08/07 03:51:59;;;;;;;3.80;2.08;;;;;;;18.44;82.01;98348.84;5015733;28;20192;-75
2021/08/07 03:54:25;;;;;;;5.38;2.20;;;;;;;18.42;82.32;98340.00;5015159;28;20201;-75
2021/08/07 03:56:52;;;;;;;2.75;2.00;;;;;;;18.30;83.11;98338.63;5015167;28;20193;-76
2021/08/07 03:59:18;;;;;;;2.95;2.17;;;;;;;18.53;81.97;98338.81;5027163;28;20194;-75
2021/08/07 04:01:47;;;;;;;4.43;2.08;;;;;;;18.47;81.98;98340.31;5034986;28;20785;-75
2021/08/07 04:04:13;;;;;;;4.90;2.10;;;;;;;18.73;80.41;98336.59;5034968;28;20213;-75
2021/08/07 04:06:40;;;;;;;3.60;1.85;;;;;;;18.59;81.53;98346.31;5035112;28;20188;-75
2021/08/07 04:09:06;;;;;;;3.97;2.20;;;;;;;18.58;81.14;98335.56;5035194;28;20215;-75
2021/08/07 04:11:33;;;;;;;2.53;2.10;;;;;;;18.61;81.37;98327.03;5034960;28;20703;-76
2021/08/07 04:13:59;;;;;;;2.55;1.98;;;;;;;18.55;81.53;98334.88;5023366;28;20185;-74
2021/08/07 04:16:26;;;;;;;2.90;1.95;;;;;;;18.61;81.51;98333.38;5031620;28;20208;-75
2021/08/07 04:18:54;;;;;;;4.25;1.92;;;;;;;18.62;81.19;98331.50;5014889;28;20196;-75
2021/08/07 04:21:21;;;;;;;9.32;3.08;;;;;;;18.72;80.62;98330.28;5015131;28;20190;-75
2021/08/07 04:23:47;;;;;;;3.50;2.30;;;;;;;18.59;81.02;98321.78;5014478;28;20226;-75
2021/08/07 04:26:14;;;;;;;2.65;2.30;;;;;;;18.55;81.71;98326.72;5014231;28;20276;-75
2021/08/07 04:28:40;;;;;;;7.72;3.50;;;;;;;18.51;81.91;98333.53;5021632;28;20310;-76
2021/08/07 04:31:07;;;;;;;4.05;2.67;;;;;;;18.51;82.31;98344.41;5034583;28;21041;-76
2021/08/07 04:33:34;;;;;;;4.68;2.15;;;;;;;18.46;82.57;98332.34;5034207;28;20225;-76
2021/08/07 04:36:02;;;;;;;4.35;2.60;;;;;;;18.64;81.77;98326.72;5033944;28;20206;-75
2021/08/07 04:38:28;;;;;;;7.03;1.85;;;;;;;18.70;81.12;98329.63;5034463;28;20191;-74
2021/08/07 04:40:56;;;;;;;3.25;2.20;;;;;;;18.60;81.68;98314.44;5034283;28;20205;-74
2021/08/07 04:43:22;;;;;;;4.00;2.25;;;;;;;18.57;81.58;98314.81;5031360;28;20212;-75
2021/08/07 04:45:49;;;;;;;3.47;2.42;;;;;;;18.53;81.68;98320.56;5034523;28;20188;-75
2021/08/07 04:48:16;;;;;;;3.47;2.25;;;;;;;18.50;81.91;98318.19;5027215;28;20295;-75
2021/08/07 04:50:43;;;;;;;5.38;2.38;;;;;;;18.39;82.70;98324.00;5013592;28;20197;-75
2021/08/07 04:53:11;;;;;;;4.25;2.30;;;;;;;18.38;83.24;98322.28;5014247;28;20192;-75
2021/08/07 04:55:38;;;;;;;4.10;2.58;;;;;;;18.55;82.00;98318.53;5013932;28;20208;-75
2021/08/07 04:58:05;;;;;;;3.38;1.85;;;;;;;18.54;82.15;98333.19;5014013;28;20184;-75
2021/08/07 05:00:31;;;;;;;2.83;2.15;;;;;;;18.53;82.05;98336.09;5013736;28;20202;-75
2021/08/07 05:02:58;;;;;;;5.13;2.10;;;;;;;18.51;82.30;98338.13;5013456;28;20233;-75
2021/08/07 05:05:25;;;;;;;4.47;2.25;;;;;;;18.52;82.69;98324.34;5013460;28;20197;-74
2021/08/07 05:07:52;;;;;;;3.40;2.08;;;;;;;18.67;81.68;98323.63;5014326;28;20196;-75
2021/08/07 05:10:20;;;;;;;3.00;2.13;;;;;;;18.66;81.60;98325.53;5014251;28;20943;-74
2021/08/07 05:12:47;;;;;;;2.90;1.80;;;;;;;18.67;81.86;98327.22;5013815;28;20209;-74
2021/08/07 05:15:14;;;;;;;3.60;2.30;;;;;;;18.67;81.65;98337.28;5018861;28;20279;-74
2021/08/07 05:17:40;;;;;;;2.67;1.70;;;;;;;18.67;81.79;98334.53;5015855;28;20295;-74
2021/08/07 05:20:08;;;;;;;4.20;2.10;;;;;;;18.70;81.10;98326.00;5013937;28;20965;-74
2021/08/07 05:22:35;;;;;;;3.83;2.70;;;;;;;18.74;81.36;98316.47;5013795;28;20615;-74
2021/08/07 05:25:01;;;;;;;3.75;2.08;;;;;;;18.81;80.62;98322.13;5013817;28;20232;-74
2021/08/07 05:27:29;;;;;;;5.40;2.40;;;;;;;18.85;80.09;98318.88;5013881;28;20189;-74
2021/08/07 05:29:56;;;;;;;2.03;1.50;;;;;;;19.01;79.48;98322.59;5013570;28;20196;-75
2021/08/07 05:32:22;;;;;;;3.90;1.83;;;;;;;19.04;79.29;98319.50;5013413;28;20619;-75
2021/08/07 05:34:49;;;;;;;3.97;2.28;;;;;;;19.24;78.11;98326.28;5013646;28;20319;-74
2021/08/07 05:37:16;;;;;;;6.63;2.25;;;;;;;19.17;78.25;98328.00;5013141;28;20269;-75
2021/08/07 05:39:42;;;;;;;5.45;2.90;;;;;;;19.21;77.88;98329.34;5014174;28;20963;-75
2021/08/07 05:42:09;;;;;;;4.65;2.00;;;;;;;19.25;77.73;98338.91;5027816;28;20627;-75
2021/08/07 05:44:37;;;;;;;5.82;2.30;;;;;;;19.17;78.38;98339.78;5032612;28;20210;-73
2021/08/07 05:47:03;;;;;;;3.45;2.03;;;;;;;19.21;78.36;98340.28;5017207;28;20199;-74
2021/08/07 05:49:30;;;;;;;7.15;2.33;;;;;;;19.17;78.47;98333.47;5018358;28;20182;-75
2021/08/07 05:51:57;;;;;;;4.07;2.20;;;;;;;19.27;78.18;98334.13;5032799;28;20201;-75
2021/08/07 05:54:23;;;;;;;4.50;2.10;;;;;;;19.35;77.36;98336.81;5032775;28;20188;-75
2021/08/07 05:56:50;;;;;;;4.70;2.95;;;;;;;19.43;77.02;98343.28;5016427;28;20187;-75
2021/08/07 05:59:17;;;;;;;5.20;2.60;;;;;;;19.45;76.95;98335.78;5017774;28;20209;-75
2021/08/07 06:01:45;;;;;;;5.35;2.30;;;;;;;19.53;76.28;98327.53;5031897;28;20601;-75
2021/08/07 06:04:11;;;;;;;4.95;2.30;;;;;;;19.32;77.24;98322.69;5018994;28;20252;-74
2021/08/07 06:06:38;;;;;;;4.13;2.80;;;;;;;19.26;77.72;98318.75;5032014;28;20198;-75
2021/08/07 06:09:04;;;;;;;6.95;2.30;;;;;;;19.41;76.90;98321.63;5032650;28;20613;-75
2021/08/07 06:11:31;;;;;;;2.50;2.25;;;;;;;19.51;76.55;98314.06;5027519;28;20277;-75
2021/08/07 06:13:58;;;;;;;1.92;1.65;;;;;;;19.40;77.80;98317.16;5032229;28;20284;-75
2021/08/07 06:16:25;;;;;;;3.37;2.57;;;;;;;19.34;77.93;98305.09;5032202;28;20551;-75
2021/08/07 06:18:53;;;;;;;4.30;2.57;;;;;;;19.40;77.69;98303.53;5016459;28;20437;-75
2021/08/07 06:21:20;;;;;;;3.43;2.60;;;;;;;19.37;78.15;98303.88;5012482;28;20508;-75
2021/08/07 06:23:46;;;;;;;3.63;2.10;;;;;;;19.66;76.42;98308.72;5028416;28;20551;-75
2021/08/07 06:26:14;;;;;;;3.13;2.43;;;;;;;19.71;75.74;98306.31;5021083;28;20532;-76
2021/08/07 06:28:41;;;;;;;3.90;2.03;;;;;;;19.65;75.99;98301.56;5014851;28;20445;-74
2021/08/07 06:31:09;;;;;;;2.80;2.22;;;;;;;19.69;75.64;98302.91;5019746;28;20441;-75
2021/08/07 06:33:36;;;;;;;4.40;1.80;;;;;;;19.72;75.69;98304.47;5012645;28;20672;-75
2021/08/07 06:36:04;;;;;;;4.10;2.10;;;;;;;19.65;76.16;98307.03;5012612;28;20555;-76
2021/08/07 06:38:31;;;;;;;4.18;1.90;;;;;;;19.57;76.81;98307.88;5012269;28;20440;-76
2021/08/07 06:40:58;;;;;;;4.82;2.60;;;;;;;19.54;77.00;98300.06;5012680;28;20727;-74
2021/08/07 06:43:25;;;;;;;3.30;2.10;;;;;;;19.67;76.27;98304.09;5012581;28;20211;-75
2021/08/07 06:45:51;;;;;;;6.70;2.70;;;;;;;19.78;76.44;98304.56;5016998;28;20209;-75
2021/08/07 06:48:18;;;;;;;3.45;2.05;;;;;;;19.83;75.48;98316.84;5009685;28;20206;-75
2021/08/07 06:50:45;;;;;;;4.60;2.40;;;;;;;19.90;75.49;98312.34;5017584;28;20292;-75
2021/08/07 06:53:13;;;;;;;3.53;2.30;;;;;;;20.02;74.85;98302.72;5012056;28;20195;-75
2021/08/07 06:55:39;;;;;;;2.37;1.80;;;;;;;20.15;73.97;98302.97;5015954;28;20194;-74
2021/08/07 06:58:06;;;;;;;5.13;2.30;;;;;;;20.26;73.81;98309.91;5013472;28;20524;-75
2021/08/07 07:00:36;;;;;;;2.90;2.30;;;;;;;20.22;72.94;98314.03;5014674;28;20861;-74
2021/08/07 07:03:02;;;;;;;2.67;2.10;;;;;;;20.15;73.55;98315.81;5031528;28;20480;-74
2021/08/07 07:05:31;;;;;;;5.17;2.60;;;;;;;20.07;74.11;98324.03;5031477;28;20476;-75
2021/08/07 07:07:58;;;;;;;4.70;2.10;;;;;;;19.97;74.61;98324.28;5021162;28;20445;-75
2021/08/07 07:10:26;;;;;;;3.50;1.90;;;;;;;20.10;75.10;98329.13;5011798;28;20433;-75
2021/08/07 07:12:53;;;;;;;5.40;2.23;;;;;;;20.07;74.95;98321.31;5012257;28;20434;-75
2021/08/07 07:15:20;;;;;;;2.70;2.20;;;;;;;20.12;74.69;98316.97;5015696;28;20448;-74
2021/08/07 07:17:46;;;;;;;5.05;2.40;;;;;;;20.20;74.15;98308.75;5015930;28;20845;-73
2021/08/07 07:20:14;;;;;;;11.40;10.10;;;;;;;20.16;73.81;98315.59;5015904;28;20198;-74
2021/08/07 07:22:41;;;;;;;4.93;1.90;;;;;;;20.07;73.97;98319.41;5015602;28;20441;-75
2021/08/07 07:25:10;;;;;;;4.10;2.13;;;;;;;20.22;73.51;98310.47;5015046;28;20556;-75
2021/08/07 07:27:38;;;;;;;5.20;2.80;;;;;;;20.26;72.59;98304.44;5027277;28;20442;-75
2021/08/07 07:30:06;;;;;;;3.40;2.00;;;;;;;20.30;70.88;98310.38;5015389;28;20452;-74
2021/08/07 07:32:32;;;;;;;6.00;2.57;;;;;;;20.09;72.21;98311.91;5028221;28;20945;-75
2021/08/07 07:35:00;;;;;;;7.20;2.87;;;;;;;20.06;72.02;98306.81;5034929;28;20440;-75
2021/08/07 07:37:27;;;;;;;6.20;2.57;;;;;;;20.09;72.57;98305.59;5035263;28;20428;-75
2021/08/07 07:39:53;;;;;;;3.63;2.10;;;;;;;20.43;70.72;98305.16;5035192;28;20432;-74
2021/08/07 07:42:20;;;;;;;4.67;2.20;;;;;;;20.46;70.75;98302.03;5034524;28;20444;-75
2021/08/07 07:44:48;;;;;;;8.23;3.00;;;;;;;20.74;69.85;98310.53;5016768;28;20480;-75
2021/08/07 07:47:15;;;;;;;5.20;3.80;;;;;;;20.81;69.97;98314.25;5014881;28;20777;-76
2021/08/07 07:49:42;;;;;;;4.07;2.30;;;;;;;20.99;69.25;98318.53;5015017;28;20441;-75
2021/08/07 07:52:08;;;;;;;4.73;4.00;;;;;;;21.03;68.89;98323.44;5014633;28;20448;-75
2021/08/07 07:54:35;;;;;;;7.13;5.10;;;;;;;20.99;69.07;98318.53;5014814;28;20438;-75
2021/08/07 07:57:03;;;;;;;4.90;2.20;;;;;;;21.00;68.54;98320.19;5015632;28;20442;-75
2021/08/07 07:59:30;;;;;;;3.33;2.00;;;;;;;21.15;67.15;98317.50;5026212;28;20437;-74
2021/08/07 08:02:01;;;;;;;4.00;2.20;;;;;;;21.23;66.62;98320.13;5034369;28;20481;-75
2021/08/07 08:04:29;;;;;;;8.27;2.07;;;;;;;21.26;66.00;98327.97;5034287;28;20468;-75
2021/08/07 08:06:56;;;;;;;3.60;2.00;;;;;;;21.20;66.34;98329.56;5025719;28;20533;-75
2021/08/07 08:09:22;;;;;;;2.47;2.27;;;;;;;21.10;67.10;98315.31;5014212;28;20474;-75
2021/08/07 08:11:49;;;;;;;3.70;2.10;;;;;;;21.14;67.29;98304.81;5014559;28;20429;-75
2021/08/07 08:14:16;;;;;;;4.63;2.40;;;;;;;21.27;66.88;98310.50;5014457;28;20944;-74
2021/08/07 08:16:43;;;;;;;4.77;2.00;;;;;;;21.36;66.60;98317.56;5014301;28;20441;-75
2021/08/07 08:19:11;;;;;;;4.50;2.20;;;;;;;21.49;66.16;98318.84;5014145;28;20852;-76
2021/08/07 08:21:38;;;;;;;2.37;1.90;;;;;;;21.53;66.23;98311.94;5016472;28;20898;-75
2021/08/07 08:24:05;;;;;;;7.63;2.60;;;;;;;21.92;64.10;98308.00;5031964;28;20469;-74
2021/08/07 08:26:31;;;;;;;2.77;1.70;;;;;;;22.27;62.67;98309.00;5033397;28;20899;-75
2021/08/07 08:28:58;;;;;;;5.03;2.13;;;;;;;22.22;63.04;98303.28;5032118;28;20440;-75
2021/08/07 08:31:25;;;;;;;3.03;1.80;;;;;;;22.35;62.76;98303.41;5031864;28;20433;-74
2021/08/07 08:33:51;;;;;;;4.87;2.20;;;;;;;22.20;61.66;98306.19;5033826;28;20528;-75
2021/08/07 08:36:19;;;;;;;5.77;2.93;;;;;;;22.19;61.67;98293.53;5033775;28;20790;-75
2021/08/07 08:38:46;;;;;;;2.77;1.80;;;;;;;22.26;61.26;98299.94;5015027;28;20528;-74
2021/08/07 08:41:12;;;;;;;4.50;2.60;;;;;;;22.31;61.34;98304.00;5014313;28;20434;-74
2021/08/07 08:43:39;;;;;;;6.93;1.90;;;;;;;22.22;61.45;98292.31;5013749;28;20539;-74
2021/08/07 08:46:06;;;;;;;5.00;2.00;;;;;;;22.10;62.22;98289.22;5013834;28;20469;-75
2021/08/07 08:48:37;;;;;;;3.53;2.27;;;;;;;22.21;62.25;98302.44;5014749;28;20544;-74
2021/08/07 08:51:08;;;;;;;5.30;2.07;;;;;;;22.14;61.68;98297.88;5016755;28;20435;-75
2021/08/07 08:53:39;;;;;;;3.40;2.03;;;;;;;22.23;59.84;98294.88;5033641;28;20903;-75
2021/08/07 08:56:06;;;;;;;4.30;2.37;;;;;;;22.06;61.20;98293.38;5021520;28;20427;-74
2021/08/07 08:58:35;;;;;;;4.10;2.47;;;;;;;22.21;60.82;98283.25;5024273;28;20475;-75
2021/08/07 09:01:04;;;;;;;4.50;2.17;;;;;;;22.24;59.97;98293.81;5021191;28;20444;-75
2021/08/07 09:03:31;;;;;;;3.67;2.30;;;;;;;22.54;59.13;98285.44;5012961;28;20469;-74
2021/08/07 09:05:57;;;;;;;6.43;2.07;;;;;;;22.63;58.44;98297.13;5013431;28;20488;-75
2021/08/07 09:08:24;;;;;;;4.77;2.20;;;;;;;22.80;58.68;98283.97;5014372;28;20436;-74
2021/08/07 09:11:13;;;;;;;4.60;1.70;;;;;;;22.92;57.88;98279.63;5012917;28;20455;-75
2021/08/07 09:13:40;;;;;;;4.10;2.00;;;;;;;22.99;58.34;98276.91;5013338;28;20469;-74
2021/08/07 09:16:08;;;;;;;4.33;2.43;;;;;;;23.10;57.79;98257.19;5013149;28;20426;-73
2021/08/07 09:18:35;;;;;;;3.30;1.93;;;;;;;23.09;57.84;98260.97;5013154;28;20451;-74
2021/08/07 09:21:11;;;;;;;4.30;2.50;;;;;;;23.20;57.50;98273.28;5029371;28;20450;-74
2021/08/07 09:23:38;;;;;;;2.57;1.60;;;;;;;23.30;56.88;98266.38;5029316;28;20523;-74
2021/08/07 09:26:18;;;;;;;4.70;1.90;;;;;;;23.44;56.26;98275.50;5012714;28;20484;-75
2021/08/07 09:28:47;;;;;;;3.07;1.53;;;;;;;23.37;56.53;98269.16;5015514;28;20436;-75
2021/08/07 09:31:13;;;;;;;4.73;2.27;;;;;;;23.42;56.93;98266.63;5013146;28;20445;-75
2021/08/07 09:33:40;;;;;;;5.63;1.80;;;;;;;23.34;56.54;98279.69;5013013;28;20465;-75
2021/08/07 09:36:07;;;;;;;3.40;2.00;;;;;;;23.25;56.72;98285.34;5020738;28;20447;-73
2021/08/07 09:38:34;;;;;;;4.70;2.37;;;;;;;23.29;57.19;98275.66;5033040;28;20421;-74
2021/08/07 09:41:02;;;;;;;7.00;3.30;;;;;;;23.34;57.11;98275.06;5029216;28;20426;-74
2021/08/07 09:43:32;;;;;;;5.30;2.27;;;;;;;23.41;56.70;98264.09;5013220;28;20752;-75
2021/08/07 09:46:02;;;;;;;3.30;2.30;;;;;;;23.25;57.73;98279.03;5013003;28;20468;-74
2021/08/07 09:48:34;;;;;;;5.77;1.93;;;;;;;22.91;58.47;98280.69;5012612;28;20436;-74
2021/08/07 09:51:14;;;;;;;6.13;2.10;;;;;;;22.80;59.42;98278.47;5012475;28;20484;-74
2021/08/07 09:53:41;;;;;;;6.20;3.27;;;;;;;22.75;59.71;98281.81;5012802;28;20521;-74
2021/08/07 09:56:09;;;;;;;5.63;4.17;;;;;;;22.76;60.04;98279.94;5012597;28;20452;-75
2021/08/07 09:58:37;;;;;;;3.73;2.30;;;;;;;22.46;61.01;98269.13;5012484;28;20537;-74
2021/08/07 10:01:04;;;;;;;6.23;2.10;;;;;;;22.57;60.58;98270.50;5024073;28;20451;-73
2021/08/07 10:03:33;;;;;;;7.17;2.30;;;;;;;22.69;59.46;98260.66;5012076;28;20476;-73
2021/08/07 10:06:21;;;;;;;4.10;2.40;;;;;;;22.57;59.35;98262.28;5021988;28;20464;-73
2021/08/07 10:08:49;;;;;;;5.17;2.23;;;;;;;22.78;59.28;98270.44;5032312;28;20999;-73
2021/08/07 10:11:15;;;;;;;6.90;2.47;;;;;;;22.69;58.86;98264.25;5032165;28;20452;-74
2021/08/07 10:13:44;;;;;;;2.63;2.10;;;;;;;22.73;59.33;98266.63;5031941;28;20905;-73
2021/08/07 10:16:13;;;;;;;4.63;2.90;;;;;;;22.65;59.14;98271.19;5032091;28;20519;-74
2021/08/07 10:18:42;;;;;;;5.00;3.17;;;;;;;22.56;59.79;98286.09;5018571;28;21236;-74
2021/08/07 10:21:09;;;;;;;10.80;2.30;;;;;;;22.33;60.69;98282.72;5011490;28;20444;-74
2021/08/07 10:23:36;;;;;;;4.07;2.30;;;;;;;22.32;60.97;98281.00;5015253;28;20541;-75
2021/08/07 10:26:04;;;;;;;2.90;2.50;;;;;;;22.30;60.91;98288.63;5031939;28;20571;-74
2021/08/07 10:28:33;;;;;;;7.97;3.00;;;;;;;22.31;60.72;98290.28;5029612;28;20431;-74
2021/08/07 10:31:03;;;;;;;6.37;2.70;;;;;;;22.24;60.86;98282.00;5031678;28;20841;-73
2021/08/07 10:33:31;;;;;;;5.90;2.70;;;;;;;22.31;60.99;98290.28;5029339;28;20464;-73
2021/08/07 10:35:59;;;;;;;7.40;2.77;;;;;;;22.31;60.83;98280.16;5012425;28;20446;-73
2021/08/07 10:38:26;;;;;;;6.13;2.80;;;;;;;22.42;60.58;98273.31;5012202;28;20772;-74
2021/08/07 10:40:54;;;;;;;3.63;2.20;;;;;;;22.56;59.79;98264.16;5012173;28;20540;-74
2021/08/07 10:43:22;;;;;;;4.13;2.20;;;;;;;22.75;59.45;98257.13;5011264;28;20505;-74
2021/08/07 10:45:49;;;;;;;5.73;2.70;;;;;;;22.84;59.11;98255.09;5010896;28;20473;-74
2021/08/07 10:48:41;;;;;;;6.60;2.30;;;;;;;22.97;58.70;98257.91;5017740;28;20519;-73
2021/08/07 10:51:35;;;;;;;5.60;2.37;;;;;;;22.90;58.79;98252.38;5031879;28;20793;-74
2021/08/07 10:54:05;;;;;;;3.83;3.20;;;;;;;22.93;58.83;98256.63;5006339;28;20540;-74
2021/08/07 10:56:41;;;;;;;11.07;6.97;;;;;;;22.94;58.76;98258.31;5015823;28;20498;-74
2021/08/07 10:59:18;;;;;;;5.87;3.20;;;;;;;;;;5014951;28;20432;-74
2021/08/07 11:01:46;;;;;;;6.00;3.10;;;;;;;22.87;59.31;98258.25;5015072;28;20487;-74
2021/08/07 11:04:18;;;;;;;3.37;2.67;;;;;;;22.91;58.68;98242.25;5015047;28;21092;-75
2021/08/07 11:07:10;;;;;;;11.70;10.83;;;;;;;23.03;57.77;98243.41;5015260;28;21025;-73
2021/08/07 11:09:40;;;;;;;7.60;2.30;;;;;;;23.10;57.92;98240.69;5015061;28;20496;-73
2021/08/07 11:12:19;;;;;;;3.80;2.27;;;;;;;23.30;57.17;98229.81;5015289;28;20433;-74
2021/08/07 11:14:48;;;;;;;2.90;2.13;;;;;;;23.63;56.58;98229.09;5014773;28;20432;-74
2021/08/07 11:17:48;;;;;;;3.27;2.47;;;;;;;23.84;55.76;98215.25;5014853;28;20433;-73
2021/08/07 11:20:38;;;;;;;3.37;2.47;;;;;;;24.06;54.77;98218.69;5014583;28;20887;-73
2021/08/07 11:23:08;;;;;;;3.93;2.23;;;;;;;24.00;55.34;98226.91;5014870;28;20518;-73
2021/08/07 11:25:55;;;;;;;5.80;4.70;;;;;;;24.05;55.15;98221.63;5014908;28;20476;-73
2021/08/07 11:28:22;;;;;;;5.50;3.30;;;;;;;24.22;54.84;98222.94;5015154;28;21011;-73
2021/08/07 11:30:49;;;;;;;6.13;1.80;;;;;;;24.02;55.25;98222.06;5014348;28;20452;-73
2021/08/07 11:33:24;;;;;;;6.33;2.27;;;;;;;23.77;55.97;98214.41;5015036;28;20449;-74
2021/08/07 11:36:07;;;;;;;4.73;2.00;;;;;;;23.90;55.73;98219.06;5014692;28;20543;-73
2021/08/07 11:38:35;;;;;;;5.97;2.60;;;;;;;23.82;56.14;98217.34;5015071;28;20433;-73
2021/08/07 11:41:04;;;;;;;4.67;2.30;;;;;;;23.77;56.05;98222.63;5014608;28;20460;-73